createdAt,value
2023-01-20T00:01:48.487Z,18.80
2023-01-20T00:04:15.806Z,18.70
2023-01-20T00:06:42.824Z,19.30
2023-01-20T00:09:14.176Z,19.70
2023-01-20T00:11:41.079Z,19.80
2023-01-20T00:14:09.078Z,20.60
2023-01-20T00:16:36.376Z,19.80
2023-01-20T00:19:03.488Z,19.10
2023-01-20T00:21:30.555Z,20.20
2023-01-20T00:23:57.625Z,20.60
2023-01-20T00:26:24.852Z,20.00
2023-01-20T00:28:54.098Z,20.00
2023-01-20T00:31:22.933Z,17.60
2023-01-20T00:33:51.429Z,19.00
2023-01-20T00:36:19.364Z,21.40
2023-01-20T00:38:46.415Z,24.70
2023-01-20T00:41:13.648Z,25.40
2023-01-20T00:43:46.035Z,28.70
2023-01-20T00:46:13.502Z,26.20
2023-01-20T00:48:40.532Z,23.80
2023-01-20T00:51:08.258Z,23.40
2023-01-20T00:53:35.612Z,22.10
2023-01-20T00:56:02.559Z,21.30
2023-01-20T00:58:29.565Z,19.90
2023-01-20T01:00:58.933Z,19.90
2023-01-20T01:03:28.211Z,21.60
2023-01-20T01:05:55.645Z,19.10
2023-01-20T01:08:22.639Z,18.30
2023-01-20T01:10:49.684Z,21.70
2023-01-20T01:13:16.738Z,20.60
2023-01-20T01:15:49.814Z,21.40
2023-01-20T01:18:17.082Z,20.70
2023-01-20T01:20:45.042Z,19.20
2023-01-20T01:23:12.759Z,20.00
2023-01-20T01:25:39.971Z,20.30
2023-01-20T01:28:06.973Z,20.10
2023-01-20T01:30:33.983Z,19.10
2023-01-20T01:33:01.303Z,19.50
2023-01-20T01:35:28.357Z,19.60
2023-01-20T01:37:55.507Z,19.00
2023-01-20T01:40:27.613Z,20.70
2023-01-20T01:42:54.716Z,21.30
2023-01-20T01:45:23.580Z,20.10
2023-01-20T01:47:56.433Z,19.60
2023-01-20T01:50:30.867Z,19.70
2023-01-20T01:53:02.932Z,20.20
2023-01-20T01:55:31.844Z,16.80
2023-01-20T01:57:58.857Z,19.30
2023-01-20T02:00:31.194Z,19.00
2023-01-20T02:02:58.216Z,20.10
2023-01-20T02:05:30.404Z,19.70
2023-01-20T02:07:57.387Z,19.70
2023-01-20T02:10:30.346Z,19.60
2023-01-20T02:12:57.277Z,17.70
2023-01-20T02:15:27.702Z,19.30
2023-01-20T02:18:16.206Z,18.70
2023-01-20T02:20:57.458Z,18.50
2023-01-20T02:23:53.461Z,19.30
2023-01-20T02:26:23.474Z,17.00
2023-01-20T02:28:59.521Z,17.30
2023-01-20T02:31:45.224Z,19.20
2023-01-20T02:34:25.954Z,19.00
2023-01-20T02:37:03.372Z,19.20
2023-01-20T02:39:44.692Z,16.80
2023-01-20T02:42:21.775Z,17.60
2023-01-20T02:45:00.193Z,16.80
2023-01-20T02:47:43.483Z,16.50
2023-01-20T02:50:23.431Z,18.10
2023-01-20T02:52:52.538Z,18.40
2023-01-20T02:55:25.612Z,17.80
2023-01-20T02:57:56.522Z,16.90
2023-01-20T03:00:25.997Z,17.40
2023-01-20T03:02:53.708Z,15.80
2023-01-20T03:05:22.620Z,16.10
2023-01-20T03:07:49.770Z,16.80
2023-01-20T03:10:18.784Z,17.60
2023-01-20T03:12:51.681Z,16.70
2023-01-20T03:15:21.203Z,16.60
2023-01-20T03:17:48.296Z,16.20
2023-01-20T03:20:20.642Z,14.50
2023-01-20T03:22:47.743Z,17.20
2023-01-20T03:25:15.387Z,15.90
2023-01-20T03:27:43.042Z,17.50
2023-01-20T03:30:16.785Z,16.20
2023-01-20T03:32:46.146Z,16.40
2023-01-20T03:35:16.516Z,15.00
2023-01-20T03:37:44.313Z,16.10
2023-01-20T03:40:17.121Z,16.80
2023-01-20T03:42:52.807Z,17.40
2023-01-20T03:45:27.386Z,16.20
2023-01-20T03:48:13.937Z,15.60
2023-01-20T03:50:47.991Z,15.10
2023-01-20T03:53:46.030Z,15.60
2023-01-20T03:56:25.816Z,15.20
2023-01-20T03:58:53.715Z,14.20
2023-01-20T04:01:22.875Z,17.20
2023-01-20T04:03:51.267Z,15.40
2023-01-20T04:06:25.087Z,15.30
2023-01-20T04:09:00.741Z,15.20
2023-01-20T04:11:28.163Z,15.60
2023-01-20T04:13:55.233Z,15.40
2023-01-20T04:16:22.277Z,16.60
2023-01-20T04:18:50.440Z,17.70
2023-01-20T04:21:31.245Z,15.90
2023-01-20T04:24:03.470Z,17.10
2023-01-20T04:26:30.355Z,14.20
2023-01-20T04:28:57.481Z,15.40
2023-01-20T04:31:30.705Z,17.40
2023-01-20T04:33:58.476Z,16.80
2023-01-20T04:36:25.584Z,16.40
2023-01-20T04:38:52.537Z,18.80
2023-01-20T04:41:19.542Z,17.80
2023-01-20T04:43:47.144Z,17.00
2023-01-20T04:46:14.895Z,17.60
2023-01-20T04:48:42.044Z,16.00
2023-01-20T04:51:09.112Z,16.70
2023-01-20T04:53:36.140Z,17.20
2023-01-20T04:56:03.188Z,17.00
2023-01-20T04:58:30.337Z,17.10
2023-01-20T05:00:57.368Z,18.20
2023-01-20T05:03:24.300Z,17.00
2023-01-20T05:05:54.880Z,18.10
2023-01-20T05:08:22.289Z,18.60
2023-01-20T05:10:49.434Z,16.60
2023-01-20T05:13:16.517Z,18.40
2023-01-20T05:15:48.801Z,16.80
2023-01-20T05:18:15.720Z,15.50
2023-01-20T05:20:45.688Z,17.10
2023-01-20T05:23:12.704Z,16.10
2023-01-20T05:25:39.993Z,18.20
2023-01-20T05:28:07.081Z,17.10
2023-01-20T05:30:34.126Z,17.70
2023-01-20T05:33:01.286Z,17.70
2023-01-20T05:35:28.362Z,17.20
2023-01-20T05:37:55.638Z,16.40
2023-01-20T05:40:22.538Z,19.40
2023-01-20T05:42:54.629Z,18.20
2023-01-20T05:45:21.706Z,18.20
2023-01-20T05:47:48.800Z,18.00
2023-01-20T05:50:16.466Z,17.50
2023-01-20T05:52:43.409Z,17.80
2023-01-20T05:55:10.319Z,17.80
2023-01-20T05:57:37.396Z,17.20
2023-01-20T06:00:11.140Z,18.10
2023-01-20T06:02:38.445Z,18.40
2023-01-20T06:05:06.367Z,18.90
2023-01-20T06:07:33.467Z,17.60
2023-01-20T06:10:01.337Z,19.90
2023-01-20T06:12:28.310Z,19.20
2023-01-20T06:14:55.328Z,17.90
2023-01-20T06:17:22.288Z,18.50
2023-01-20T06:19:49.395Z,18.40
2023-01-20T06:22:16.469Z,17.50
2023-01-20T06:24:43.469Z,19.20
2023-01-20T06:27:13.469Z,19.00
2023-01-20T06:29:40.596Z,18.60
2023-01-20T06:32:07.571Z,17.90
2023-01-20T06:34:34.490Z,18.60
2023-01-20T06:37:02.441Z,17.10
2023-01-20T06:39:29.620Z,16.80
2023-01-20T06:41:59.929Z,19.30
2023-01-20T06:44:27.241Z,18.00
2023-01-20T06:46:54.447Z,21.30
2023-01-20T06:49:21.471Z,19.40
2023-01-20T06:51:49.676Z,19.10
2023-01-20T06:54:16.743Z,19.20
2023-01-20T06:56:43.784Z,20.10
2023-01-20T06:59:11.656Z,18.10
2023-01-20T07:01:39.175Z,19.10
2023-01-20T07:04:06.819Z,20.60
2023-01-20T07:06:38.717Z,18.30
2023-01-20T07:09:06.945Z,20.30
2023-01-20T07:11:36.153Z,19.90
2023-01-20T11:25:25.196Z,20.60
2023-01-20T11:27:52.441Z,20.70
2023-01-20T11:30:22.258Z,19.80
2023-01-20T11:33:35.211Z,20.40
2023-01-20T11:36:29.421Z,18.60
2023-01-20T11:38:57.491Z,19.40
2023-01-20T11:41:25.517Z,19.90
2023-01-20T11:43:57.194Z,19.20
2023-01-20T11:46:28.514Z,19.60
2023-01-20T11:49:17.199Z,18.80
2023-01-20T11:51:54.521Z,21.00
2023-01-20T11:54:29.328Z,19.50
2023-01-20T11:57:04.188Z,20.10
2023-01-20T11:59:34.516Z,19.60
2023-01-20T12:02:20.806Z,19.10
2023-01-20T12:04:50.926Z,18.20
2023-01-20T12:07:25.468Z,18.50
2023-01-20T12:09:54.418Z,18.10
2023-01-20T12:12:52.446Z,18.90
2023-01-20T12:15:25.244Z,18.10
2023-01-20T12:18:02.864Z,17.80
2023-01-20T12:20:54.663Z,18.00
2023-01-20T12:23:22.528Z,17.10
2023-01-20T12:25:53.889Z,17.30
2023-01-20T12:28:42.671Z,17.00
2023-01-20T12:31:10.271Z,16.20
2023-01-20T12:33:38.963Z,17.30
2023-01-20T12:36:16.876Z,17.40
2023-01-20T12:39:08.723Z,16.90
2023-01-20T12:42:10.539Z,17.00
2023-01-20T12:44:57.883Z,21.20
2023-01-20T12:47:37.929Z,16.20
2023-01-20T12:50:42.119Z,16.40
2023-01-20T12:53:48.099Z,15.60
2023-01-20T12:56:33.662Z,16.20
2023-01-20T12:59:06.356Z,16.30
2023-01-20T13:01:52.271Z,16.10
2023-01-20T13:04:44.262Z,15.80
2023-01-20T13:07:32.819Z,16.20
2023-01-20T13:10:40.782Z,17.10
2023-01-20T13:13:24.043Z,16.50
2023-01-20T13:15:57.237Z,15.90
2023-01-20T13:19:03.197Z,17.20
2023-01-20T13:21:31.496Z,16.30
2023-01-20T13:24:02.740Z,15.80
2023-01-20T13:26:30.126Z,16.80
2023-01-20T13:28:57.410Z,16.70
2023-01-20T13:31:43.211Z,16.80
2023-01-20T13:34:22.666Z,15.70
2023-01-20T13:37:02.381Z,16.30
2023-01-20T13:39:29.281Z,15.80
2023-01-20T13:41:56.279Z,15.90
2023-01-20T13:44:33.820Z,15.70
2023-01-20T13:47:00.842Z,15.30
2023-01-20T13:49:29.310Z,17.00
2023-01-20T13:51:56.305Z,16.10
2023-01-20T13:54:28.441Z,15.10
2023-01-20T13:57:22.779Z,16.00
2023-01-20T13:59:50.151Z,15.40
2023-01-20T14:02:18.078Z,17.20
2023-01-20T14:04:45.753Z,15.30
2023-01-20T14:07:26.375Z,16.30
2023-01-20T14:09:55.904Z,16.00
2023-01-20T14:12:22.709Z,15.40
2023-01-20T14:14:51.593Z,16.00
2023-01-20T14:17:26.995Z,16.30
2023-01-20T14:19:54.920Z,15.50
2023-01-20T14:22:26.551Z,16.00
2023-01-20T14:24:58.560Z,18.00
2023-01-20T14:27:31.507Z,17.00
2023-01-20T14:30:22.780Z,17.80
2023-01-20T14:32:50.450Z,16.70
2023-01-20T14:35:23.504Z,17.90
2023-01-20T14:37:51.307Z,17.40
2023-01-20T14:40:32.028Z,18.60
2023-01-20T14:43:13.993Z,18.30
2023-01-20T14:45:43.096Z,18.40
2023-01-20T14:48:09.938Z,20.20
2023-01-20T14:50:38.123Z,18.50
2023-01-20T14:53:05.063Z,19.60
2023-01-20T14:55:36.342Z,19.70
2023-01-20T14:58:07.844Z,19.40
2023-01-20T15:00:44.267Z,21.70
2023-01-20T15:03:26.866Z,22.90
2023-01-20T15:05:54.075Z,22.30
2023-01-20T15:08:53.461Z,23.40
2023-01-20T15:11:30.747Z,25.90
2023-01-20T15:14:10.366Z,22.30
2023-01-20T15:16:48.841Z,23.50
2023-01-20T15:19:22.332Z,24.90
2023-01-20T15:22:04.729Z,24.70
2023-01-20T15:24:34.085Z,26.50
2023-01-20T15:27:01.368Z,26.60
2023-01-20T15:29:33.051Z,27.50
2023-01-20T15:32:01.668Z,25.00
2023-01-20T15:34:29.595Z,27.20
2023-01-20T15:36:56.640Z,26.50
2023-01-20T15:39:25.608Z,26.80
2023-01-20T15:41:56.516Z,27.70
2023-01-20T15:44:24.112Z,27.00
2023-01-20T15:46:51.399Z,27.10
2023-01-20T15:49:18.599Z,27.80
2023-01-20T15:51:45.727Z,27.40
2023-01-20T15:54:13.409Z,28.40
2023-01-20T15:56:41.419Z,25.10
2023-01-20T15:59:21.331Z,26.60
2023-01-20T16:01:51.108Z,26.20
2023-01-20T16:04:19.965Z,27.50
2023-01-20T16:06:46.840Z,24.10
2023-01-20T20:16:55.118Z,16.10
2023-01-20T20:19:22.369Z,15.70
2023-01-20T20:21:49.428Z,14.70
2023-01-20T20:24:17.994Z,13.90
2023-01-20T20:26:45.693Z,15.10
2023-01-20T20:29:13.937Z,13.50
2023-01-20T20:31:41.902Z,14.30
2023-01-20T20:34:12.185Z,14.50
2023-01-20T20:36:39.859Z,14.40
2023-01-20T20:39:07.824Z,14.40
2023-01-20T20:41:36.086Z,14.30
2023-01-20T20:44:03.404Z,14.80
2023-01-20T20:46:30.984Z,14.10
2023-01-20T20:48:59.105Z,14.40
2023-01-20T20:51:26.679Z,11.80
2023-01-20T20:53:57.817Z,13.50
2023-01-20T20:56:27.607Z,14.10
2023-01-20T20:59:01.416Z,14.00
2023-01-20T21:01:32.865Z,15.00
2023-01-20T21:04:01.430Z,14.40
2023-01-20T21:06:28.771Z,13.60
2023-01-20T21:08:55.817Z,12.40
2023-01-20T21:11:23.991Z,13.60
2023-01-20T21:13:51.936Z,14.10
2023-01-20T21:16:26.548Z,12.60
2023-01-20T21:18:55.630Z,13.30
2023-01-20T21:21:23.153Z,13.30
2023-01-20T21:23:53.227Z,13.50
2023-01-20T21:26:22.062Z,13.80
2023-01-20T21:28:49.024Z,12.90
2023-01-20T21:31:18.662Z,13.80
2023-01-20T21:33:48.830Z,13.00
2023-01-20T21:36:18.041Z,12.70
2023-01-20T21:38:51.148Z,13.30
2023-01-20T21:41:18.333Z,13.00
2023-01-20T21:44:10.408Z,12.20
2023-01-20T21:46:39.670Z,13.20
2023-01-20T21:49:27.360Z,11.60
2023-01-20T21:52:14.292Z,12.70
2023-01-20T21:54:41.702Z,12.60
2023-01-20T21:57:11.113Z,12.40
2023-01-20T21:59:38.810Z,14.20
2023-01-20T22:02:06.131Z,12.60
2023-01-20T22:04:33.401Z,13.80
2023-01-20T22:07:05.585Z,13.00
2023-01-20T22:09:33.018Z,12.70
2023-01-20T22:11:59.900Z,12.10
2023-01-20T22:14:26.849Z,12.60
2023-01-20T22:16:59.060Z,12.60
2023-01-20T22:19:26.243Z,13.50
2023-01-20T22:21:53.068Z,12.50
2023-01-20T22:24:20.049Z,11.20
2023-01-20T22:26:47.995Z,13.00
2023-01-20T22:29:15.614Z,13.80
2023-01-20T22:31:47.906Z,12.70
2023-01-20T22:34:14.838Z,13.40
2023-01-20T22:36:42.087Z,12.30
2023-01-20T22:39:09.561Z,12.20
2023-01-20T22:41:36.860Z,11.60
2023-01-20T22:44:03.702Z,11.20
2023-01-20T22:46:33.662Z,12.40
2023-01-20T22:49:00.671Z,12.10
2023-01-20T22:51:28.517Z,13.30
2023-01-20T22:54:01.471Z,12.00
2023-01-20T22:56:30.507Z,12.00
2023-01-20T22:58:58.033Z,10.80
2023-01-20T23:01:29.902Z,12.10
2023-01-20T23:04:02.984Z,11.30
2023-01-20T23:06:32.255Z,11.40
2023-01-20T23:09:00.835Z,11.20
2023-01-20T23:11:28.022Z,10.60
2023-01-20T23:13:55.278Z,12.40
2023-01-20T23:16:22.647Z,10.70
2023-01-20T23:18:50.971Z,10.20
2023-01-20T23:21:19.552Z,11.00
2023-01-20T23:23:46.922Z,9.50
2023-01-20T23:26:18.023Z,10.80
2023-01-20T23:28:45.617Z,10.30
2023-01-20T23:31:14.708Z,10.00
2023-01-20T23:33:46.949Z,9.70
2023-01-20T23:36:15.977Z,9.20
2023-01-20T23:38:43.325Z,10.20
2023-01-20T23:41:13.865Z,7.90
2023-01-20T23:43:41.751Z,9.40
2023-01-20T23:46:09.426Z,8.60
2023-01-20T23:48:42.159Z,9.30
2023-01-20T23:51:09.171Z,8.70
2023-01-20T23:53:37.705Z,8.10
2023-01-20T23:56:07.205Z,9.20
2023-01-20T23:58:34.578Z,7.60
